Close Search

Base
°C
Summit
°C

WEATHER AT A GLANCE

Image Slideshow

RMR Village

Revelstoke Mountain Resort -  RMR Village Webcam

Top of The Stoke

Revelstoke Mountain Resort -  Top of The Stoke Webcam

Top of Stellar

Revelstoke Mountain Resort -  Top of Stellar Webcam

Mackenzie Outpost

Revelstoke Mountain Resort -  Mackenzie Outpost Webcam

Ripper

Revelstoke Mountain Resort -  Ripper Webcam
Base
°C
Summit
°C
Wind (Summit)
km/h

Today's Forecast

Subpeak Weather

Time Avg. Air Temp Dew Point Avg. Rel Humidity Avg. 2 Min Wind Speed Max Gust Velocity MGV Time MGV Direction Avg. Spot Wind Velocity
2026-09-06 07:20:003° C-1° C78%12 km/h18 km/h07:19:00E12 km/h
06:20:003° C-1° C79%11 km/h15 km/h06:19:00E11 km/h
05:20:003° C-0° C78%9 km/h17 km/h05:17:00E11 km/h
04:20:003° C-0° C79%11 km/h16 km/h04:18:00SE11 km/h
03:20:003° C-1° C77%14 km/h18 km/h03:19:00SE13 km/h
02:20:003° C-0° C83%11 km/h21 km/h02:18:00SE14 km/h
01:20:002° C-0° C81%15 km/h19 km/h01:16:00SE16 km/h
00:25:002° C1° C90%9 km/h11 km/h00:25:00E8 km/h
23:25:002° C0° C87%11 km/h13 km/h23:25:00SE11 km/h
22:25:003° C-0° C80%9 km/h13 km/h22:21:00SE11 km/h
21:25:003° C0° C82%7 km/h8 km/h21:23:008 km/h
20:25:003° C1° C79%8 km/h10 km/h20:24:00E7 km/h
19:25:004° C-1° C72%11 km/h15 km/h19:23:00S12 km/h
18:25:004° C2° C84%5 km/h9 km/h18:21:00N5 km/h
17:25:005° C2° C83%0 km/h6 km/h17:23:00NW1 km/h
16:25:007° C4° C68%6 km/h18 km/h16:21:00SW10 km/h
15:25:007° C2° C68%11 km/h21 km/h15:21:00S14 km/h
14:25:005° C1° C79%12 km/h21 km/h14:24:00SE12 km/h
13:25:005° C4° C90%4 km/h9 km/h13:24:00SW4 km/h
12:25:006° C4° C92%2 km/h5 km/h12:23:00NE2 km/h
11:25:004° C3° C95%1 km/h5 km/h11:23:00S1 km/h
10:25:004° C4° C94%0 km/h6 km/h10:22:00NE2 km/h
09:25:003° C1° C85%3 km/h15 km/h09:22:00E8 km/h
08:25:002° C1° C87%3 km/h15 km/h08:22:00NE5 km/h

Time Avg. Air Temp Dew Point Avg. Rel Humidity Avg. 2 Min Wind Speed Max Gust Velocity MGV Time MGV Direction Avg. Spot Wind Velocity
2026-09-06 07:20:003° C-1° C78%12 km/h18 km/h07:19:00E12 km/h
07:15:003° C-0° C77%14 km/h16 km/h07:15:00E13 km/h
07:10:003° C-1° C78%11 km/h15 km/h07:10:00NE10 km/h
07:05:003° C-1° C75%8 km/h13 km/h07:02:00E8 km/h
07:00:003° C-1° C73%10 km/h19 km/h06:57:00E14 km/h
06:55:003° C-1° C74%14 km/h18 km/h06:55:00SE12 km/h
06:50:003° C-1° C74%9 km/h15 km/h06:49:00SE8 km/h
06:45:003° C-1° C73%9 km/h13 km/h06:42:00E10 km/h
06:40:003° C-1° C75%12 km/h17 km/h06:36:00SE12 km/h
06:35:003° C-0° C77%7 km/h9 km/h06:35:00E7 km/h
06:30:003° C-1° C76%9 km/h11 km/h06:29:00E8 km/h
06:25:003° C-1° C77%7 km/h12 km/h06:25:00SE7 km/h
06:20:003° C-1° C79%11 km/h15 km/h06:19:00E11 km/h

We value your privacy
We use cookies to enhance your browsing experience, serve personalized ads or content, and analyze our traffic. By clicking "Allow Cookies", you consent to our use of cookies. For additional details view our Privacy Policy.
Cookie preferences

You can control how your data is used on our website. Learn more below about the cookies we use by reviewing our Privacy Policy.

Your cookie preferences have been saved.